createdAt,value
2018-02-10T00:00:30.096Z,76.30
2018-02-10T00:03:05.832Z,76.77
2018-02-10T00:05:37.775Z,76.43
2018-02-10T00:08:06.068Z,76.50
2018-02-10T00:10:34.187Z,77.41
2018-02-10T00:13:10.098Z,77.70
2018-02-10T00:15:39.230Z,78.25
2018-02-10T00:18:11.389Z,78.06
2018-02-10T00:20:39.529Z,77.79
2018-02-10T00:23:07.656Z,78.59
2018-02-10T00:25:35.755Z,79.35
2018-02-10T00:28:10.126Z,80.38
2018-02-10T00:30:38.260Z,81.33
2018-02-10T00:33:10.055Z,81.77
2018-02-10T00:35:38.226Z,81.41
2018-02-10T00:38:07.350Z,81.62
2018-02-10T00:40:35.447Z,81.30
2018-02-10T00:43:05.536Z,81.55
2018-02-10T00:45:35.655Z,82.01
2018-02-10T00:48:07.070Z,81.85
2018-02-10T00:50:35.186Z,82.11
2018-02-10T00:53:03.290Z,82.03
2018-02-10T00:55:31.435Z,82.33
2018-02-10T00:57:59.625Z,82.89
2018-02-10T01:00:27.823Z,83.19
2018-02-10T01:02:55.942Z,83.01
2018-02-10T01:05:24.083Z,83.01
2018-02-10T01:07:52.183Z,82.51
2018-02-10T01:10:20.298Z,82.92
2018-02-10T01:12:56.108Z,83.08
2018-02-10T01:15:24.208Z,83.55
2018-02-10T01:17:52.344Z,85.03
2018-02-10T01:20:20.452Z,85.25
2018-02-10T01:22:48.612Z,84.54
2018-02-10T01:25:16.736Z,84.79
2018-02-10T01:27:44.841Z,85.06
2018-02-10T01:30:12.964Z,84.93
2018-02-10T01:32:41.093Z,85.44
2018-02-10T01:35:09.213Z,85.26
2018-02-10T01:37:37.333Z,85.10
2018-02-10T01:40:05.477Z,86.21
2018-02-10T01:42:33.574Z,87.44
2018-02-10T01:45:01.686Z,87.69
2018-02-10T01:47:29.817Z,86.93
2018-02-10T01:50:09.756Z,86.89
2018-02-10T01:52:37.880Z,87.63
2018-02-10T01:55:05.984Z,87.72
2018-02-10T01:57:34.121Z,88.44
2018-02-10T02:00:02.254Z,88.73
2018-02-10T02:02:30.353Z,89.31
2018-02-10T02:04:58.477Z,90.21
2018-02-10T02:07:26.582Z,91.05
2018-02-10T02:09:54.683Z,91.91
2018-02-10T02:12:22.879Z,91.38
2018-02-10T02:14:51.000Z,91.52
2018-02-10T02:17:19.180Z,91.14
2018-02-10T02:19:47.309Z,91.53
2018-02-10T02:22:15.416Z,92.07
2018-02-10T02:24:43.548Z,91.26
2018-02-10T02:27:11.654Z,91.28
2018-02-10T02:29:39.776Z,90.84
2018-02-10T02:32:07.879Z,91.16
2018-02-10T02:34:36.005Z,90.58
2018-02-10T02:37:04.116Z,90.62
2018-02-10T02:39:32.251Z,90.36
2018-02-10T02:42:00.374Z,90.52
2018-02-10T02:44:28.547Z,90.42
2018-02-10T02:46:56.662Z,90.24
2018-02-10T02:49:24.790Z,90.11
2018-02-10T02:51:52.923Z,90.25
2018-02-10T02:54:21.042Z,89.63
2018-02-10T02:56:49.155Z,89.46
2018-02-10T02:59:17.255Z,88.91
2018-02-10T03:01:45.393Z,89.13
2018-02-10T03:04:13.490Z,88.81
2018-02-10T03:06:41.641Z,88.99
2018-02-10T03:09:09.749Z,89.07
2018-02-10T03:11:37.865Z,88.71
2018-02-10T03:14:05.985Z,88.38
2018-02-10T03:16:34.089Z,88.45
2018-02-10T03:19:02.202Z,88.67
2018-02-10T03:21:30.327Z,88.21
2018-02-10T03:23:58.460Z,88.60
2018-02-10T03:26:26.577Z,88.16
2018-02-10T03:28:54.694Z,87.82
2018-02-10T03:31:22.816Z,87.97
2018-02-10T03:33:50.954Z,88.42
2018-02-10T03:36:19.075Z,87.79
2018-02-10T03:38:47.179Z,87.78
2018-02-10T03:41:15.296Z,87.53
2018-02-10T03:43:43.410Z,88.02
2018-02-10T03:46:11.520Z,87.76
2018-02-10T03:48:39.662Z,87.22
2018-02-10T03:51:07.786Z,87.69
2018-02-10T03:53:35.893Z,87.72
2018-02-10T03:56:03.995Z,87.42
2018-02-10T03:58:32.107Z,87.04
2018-02-10T04:01:00.230Z,87.79
2018-02-10T04:03:28.353Z,87.81
2018-02-10T04:05:56.452Z,87.48
2018-02-10T04:08:24.584Z,87.56
2018-02-10T04:10:52.698Z,87.70
2018-02-10T04:13:20.844Z,87.75
2018-02-10T04:15:49.002Z,87.92
2018-02-10T04:18:17.103Z,88.14
2018-02-10T04:20:45.241Z,87.61
2018-02-10T04:23:13.350Z,88.15
2018-02-10T04:25:41.484Z,88.47
2018-02-10T04:28:09.604Z,88.15
2018-02-10T04:30:37.730Z,88.79
2018-02-10T04:33:05.849Z,88.43
2018-02-10T04:35:33.954Z,87.91
2018-02-10T04:38:02.122Z,87.93
2018-02-10T04:40:30.231Z,87.99
2018-02-10T04:42:58.342Z,87.74
2018-02-10T04:45:26.465Z,87.45
2018-02-10T04:47:54.592Z,87.88
2018-02-10T04:50:22.718Z,87.77
2018-02-10T04:52:50.853Z,87.81
2018-02-10T04:55:18.975Z,88.24
2018-02-10T04:57:47.097Z,88.50
2018-02-10T05:00:15.241Z,88.66
2018-02-10T05:02:43.334Z,88.37
2018-02-10T05:05:11.468Z,88.25
2018-02-10T05:07:39.574Z,87.90
2018-02-10T05:10:07.683Z,88.13
2018-02-10T05:12:35.808Z,87.99
2018-02-10T05:15:03.937Z,87.79
2018-02-10T05:17:32.066Z,88.96
2018-02-10T05:20:00.182Z,89.38
2018-02-10T05:22:28.299Z,89.74
2018-02-10T05:24:56.434Z,89.73
2018-02-10T05:27:24.556Z,89.60
2018-02-10T05:29:52.689Z,89.73
2018-02-10T05:32:20.810Z,88.81
2018-02-10T05:34:48.922Z,88.51
2018-02-10T05:37:17.068Z,89.02
2018-02-10T05:39:45.172Z,88.65
2018-02-10T05:42:13.343Z,89.08
2018-02-10T05:44:41.533Z,89.22
2018-02-10T05:47:09.645Z,89.58
2018-02-10T05:49:37.832Z,89.33
2018-02-10T05:52:05.935Z,89.65
2018-02-10T05:54:34.090Z,88.98
2018-02-10T05:57:02.171Z,89.42
2018-02-10T05:59:30.322Z,89.24
2018-02-10T06:01:58.432Z,88.98
2018-02-10T06:04:26.557Z,88.25
2018-02-10T06:06:54.696Z,88.11
2018-02-10T06:09:22.810Z,87.87
2018-02-10T06:11:50.936Z,87.66
2018-02-10T06:14:19.052Z,87.35
2018-02-10T06:16:47.180Z,88.05
2018-02-10T06:19:15.288Z,87.85
2018-02-10T06:21:43.992Z,87.82
2018-02-10T06:24:12.114Z,87.69
2018-02-10T06:26:40.231Z,87.61
2018-02-10T06:29:08.344Z,88.11
2018-02-10T06:31:36.583Z,87.63
2018-02-10T06:34:04.667Z,87.48
2018-02-10T06:36:32.787Z,87.65
2018-02-10T06:39:00.939Z,87.85
2018-02-10T06:41:29.083Z,87.66
2018-02-10T06:43:57.198Z,87.17
2018-02-10T06:46:25.614Z,87.08
2018-02-10T06:48:53.753Z,86.29
2018-02-10T06:51:21.858Z,86.81
2018-02-10T06:53:49.981Z,86.79
2018-02-10T06:56:18.097Z,86.81
2018-02-10T06:58:46.198Z,86.82
2018-02-10T07:01:14.332Z,87.09
2018-02-10T07:03:42.461Z,87.63
2018-02-10T07:06:10.566Z,87.84
2018-02-10T07:08:38.703Z,87.07
2018-02-10T07:11:06.799Z,87.34
2018-02-10T07:13:34.924Z,87.40
2018-02-10T07:16:03.047Z,86.66
2018-02-10T07:18:31.168Z,86.74
2018-02-10T07:20:59.279Z,87.13
2018-02-10T07:23:27.394Z,86.67
2018-02-10T07:25:55.526Z,86.80
2018-02-10T07:28:23.647Z,86.80
2018-02-10T07:30:51.762Z,87.07
2018-02-10T07:33:19.990Z,87.90
2018-02-10T07:35:48.089Z,87.46
2018-02-10T07:38:16.210Z,87.87
2018-02-10T07:40:44.324Z,88.40
2018-02-10T07:43:12.439Z,88.62
2018-02-10T07:45:40.568Z,89.05
2018-02-10T07:48:08.675Z,89.35
2018-02-10T07:50:36.798Z,89.60
2018-02-10T07:53:04.924Z,90.04
2018-02-10T07:55:33.043Z,89.92
2018-02-10T07:58:01.182Z,91.01
2018-02-10T08:00:29.295Z,90.67
2018-02-10T08:02:57.403Z,91.14
2018-02-10T08:05:25.510Z,91.02
2018-02-10T08:07:53.628Z,91.30
2018-02-10T08:10:21.771Z,91.77
2018-02-10T08:12:49.870Z,92.42
2018-02-10T08:15:18.005Z,91.89
2018-02-10T08:17:46.140Z,91.53
2018-02-10T08:20:14.224Z,91.53
2018-02-10T08:22:42.392Z,91.57
2018-02-10T08:25:10.508Z,91.35
2018-02-10T08:27:38.658Z,91.23
2018-02-10T08:30:06.762Z,91.44
2018-02-10T08:32:34.917Z,91.67
2018-02-10T08:35:03.025Z,92.24
2018-02-10T08:37:31.162Z,91.81
2018-02-10T08:39:59.281Z,92.01
2018-02-10T08:42:27.391Z,92.12
2018-02-10T08:44:55.521Z,92.03
2018-02-10T08:47:23.627Z,92.78
2018-02-10T08:49:51.759Z,93.08
2018-02-10T08:52:19.884Z,92.82
2018-02-10T08:54:48.011Z,92.47
2018-02-10T08:57:16.139Z,92.48
2018-02-10T08:59:44.238Z,92.49
2018-02-10T09:02:12.382Z,92.28
2018-02-10T09:04:40.501Z,92.56
2018-02-10T09:07:08.618Z,92.29
2018-02-10T09:09:36.742Z,92.20
2018-02-10T09:12:04.857Z,92.05
2018-02-10T09:14:32.991Z,91.88
2018-02-10T09:17:01.185Z,91.49
2018-02-10T09:19:29.338Z,91.72
2018-02-10T09:21:57.895Z,91.37
2018-02-10T09:24:26.040Z,91.08
2018-02-10T09:26:54.182Z,90.82
2018-02-10T09:29:22.302Z,90.23
2018-02-10T09:31:50.424Z,90.18
2018-02-10T09:34:18.557Z,90.33
2018-02-10T09:36:46.677Z,90.40
2018-02-10T09:39:15.707Z,90.93
2018-02-10T09:41:44.146Z,90.83
2018-02-10T09:44:12.331Z,90.52
2018-02-10T09:46:40.441Z,90.65
2018-02-10T09:49:08.561Z,90.77
2018-02-10T09:51:36.678Z,91.19
2018-02-10T09:54:04.798Z,90.91
2018-02-10T09:56:32.922Z,90.79
2018-02-10T09:59:01.067Z,90.91
2018-02-10T10:01:29.193Z,91.09
2018-02-10T10:03:57.307Z,90.34
2018-02-10T10:06:25.428Z,87.90
2018-02-10T10:08:53.554Z,87.98
2018-02-10T10:11:21.680Z,88.65
2018-02-10T10:13:49.930Z,89.52
2018-02-10T10:16:18.047Z,90.05
2018-02-10T10:18:46.198Z,90.55
2018-02-10T10:21:14.309Z,90.22
2018-02-10T10:23:42.452Z,89.91
2018-02-10T10:26:10.579Z,89.70
2018-02-10T10:28:38.706Z,89.70
2018-02-10T10:31:06.831Z,90.13
2018-02-10T10:33:34.949Z,89.70
2018-02-10T10:36:03.082Z,89.94
2018-02-10T10:38:31.194Z,89.60
2018-02-10T10:40:59.303Z,89.27
2018-02-10T10:43:27.443Z,89.91
2018-02-10T10:45:55.572Z,90.13
2018-02-10T10:48:23.701Z,89.47
2018-02-10T10:50:51.803Z,89.74
2018-02-10T10:53:19.925Z,89.49
2018-02-10T10:55:48.093Z,89.13
2018-02-10T10:58:16.217Z,89.64
2018-02-10T11:00:44.354Z,89.70
2018-02-10T11:03:12.450Z,89.77
2018-02-10T11:05:40.586Z,87.09
2018-02-10T11:08:12.068Z,89.09
2018-02-10T11:10:40.221Z,89.58
2018-02-10T11:13:08.329Z,88.95
2018-02-10T11:15:36.462Z,89.67
2018-02-10T11:18:04.580Z,90.12
2018-02-10T11:20:32.711Z,90.47
2018-02-10T11:23:00.796Z,90.57
2018-02-10T11:25:28.941Z,90.06
2018-02-10T11:27:57.062Z,90.58
2018-02-10T11:30:25.193Z,90.26
2018-02-10T11:32:53.309Z,89.82
2018-02-10T11:35:21.428Z,90.16
2018-02-10T11:37:49.563Z,87.85
2018-02-10T11:40:21.337Z,88.88
2018-02-10T11:42:49.447Z,89.02
2018-02-10T11:45:17.567Z,89.67
2018-02-10T11:47:45.694Z,89.41
2018-02-10T11:50:13.819Z,89.36
2018-02-10T11:52:41.946Z,89.86
2018-02-10T11:55:10.058Z,90.25
2018-02-10T11:57:38.205Z,88.41
2018-02-10T12:00:06.925Z,89.17
2018-02-10T12:02:35.217Z,89.78
2018-02-10T12:05:03.353Z,90.07
2018-02-10T12:07:31.511Z,89.76
2018-02-10T12:09:59.618Z,90.29
2018-02-10T12:12:27.826Z,90.27
2018-02-10T12:14:55.952Z,90.47
2018-02-10T12:17:24.070Z,90.49
2018-02-10T12:19:55.271Z,90.44
2018-02-10T12:22:23.376Z,91.20
2018-02-10T12:24:51.542Z,91.18
2018-02-10T12:27:19.673Z,90.91
2018-02-10T12:29:47.811Z,91.18
2018-02-10T12:32:15.919Z,91.22
2018-02-10T12:34:44.052Z,90.96
2018-02-10T12:37:12.192Z,91.00
2018-02-10T12:39:40.320Z,90.73
2018-02-10T12:42:08.474Z,89.45
2018-02-10T12:44:36.584Z,90.15
2018-02-10T12:47:04.728Z,90.30
2018-02-10T12:49:32.848Z,90.70
2018-02-10T12:52:01.225Z,91.09
2018-02-10T12:54:29.302Z,91.43
2018-02-10T12:56:57.449Z,91.56
2018-02-10T12:59:25.566Z,91.59
2018-02-10T13:01:53.762Z,91.06
2018-02-10T13:04:21.883Z,90.85
2018-02-10T13:06:49.987Z,91.58
2018-02-10T13:09:18.128Z,91.83
2018-02-10T13:11:46.238Z,91.84
2018-02-10T13:14:14.384Z,91.30
2018-02-10T13:16:42.486Z,91.54
2018-02-10T13:19:10.615Z,91.94
2018-02-10T13:21:38.725Z,91.81
2018-02-10T13:24:06.892Z,92.01
2018-02-10T13:26:35.007Z,91.97
2018-02-10T13:29:03.133Z,91.93
2018-02-10T13:31:31.268Z,91.98
2018-02-10T13:33:59.374Z,92.60
2018-02-10T13:36:27.496Z,92.55
2018-02-10T13:38:55.613Z,92.55
2018-02-10T13:41:23.733Z,92.24
2018-02-10T13:43:51.870Z,92.64
2018-02-10T13:46:20.062Z,93.08
2018-02-10T13:48:48.303Z,93.81
2018-02-10T13:51:16.394Z,93.81
2018-02-10T13:53:44.540Z,93.66
2018-02-10T13:56:12.685Z,93.85
2018-02-10T13:58:40.785Z,93.54
2018-02-10T14:01:08.904Z,93.33
2018-02-10T14:03:37.045Z,93.03
2018-02-10T14:06:05.192Z,92.52
2018-02-10T14:08:33.307Z,92.14
2018-02-10T14:11:01.426Z,92.16
2018-02-10T14:13:29.541Z,92.41
2018-02-10T14:15:57.682Z,91.89
2018-02-10T14:18:25.853Z,92.31
2018-02-10T14:20:53.984Z,92.38
2018-02-10T14:23:22.938Z,91.89
2018-02-10T14:25:52.606Z,91.71
2018-02-10T14:28:21.987Z,91.44
2018-02-10T14:30:50.870Z,91.57
2018-02-10T14:33:19.424Z,91.18
2018-02-10T14:35:47.589Z,87.07
2018-02-10T14:38:15.709Z,89.83
2018-02-10T14:40:43.837Z,90.42
2018-02-10T14:43:11.969Z,91.27
2018-02-10T14:45:40.092Z,90.87
2018-02-10T14:48:08.244Z,90.72
2018-02-10T14:50:36.460Z,90.72
2018-02-10T14:53:04.574Z,91.05
2018-02-10T14:55:32.701Z,91.07
2018-02-10T14:58:00.822Z,90.47
2018-02-10T15:00:28.951Z,90.60
2018-02-10T15:02:57.076Z,91.14
2018-02-10T15:05:25.182Z,90.70
2018-02-10T15:07:53.313Z,90.88
2018-02-10T15:10:21.443Z,90.69
2018-02-10T15:12:49.551Z,90.92
2018-02-10T15:15:17.664Z,90.76
2018-02-10T15:17:45.779Z,90.67
2018-02-10T15:20:13.896Z,90.34
2018-02-10T15:22:42.050Z,90.33
2018-02-10T15:25:10.181Z,90.73
2018-02-10T15:27:38.282Z,90.89
2018-02-10T15:30:17.940Z,90.69
2018-02-10T15:32:57.765Z,90.69
2018-02-10T15:35:25.881Z,90.63
2018-02-10T15:37:54.004Z,91.15
2018-02-10T15:40:22.130Z,91.60
2018-02-10T15:42:50.269Z,91.62
2018-02-10T15:45:18.402Z,91.78
2018-02-10T15:47:49.760Z,91.50
2018-02-10T15:50:17.890Z,91.34
2018-02-10T15:52:46.031Z,92.26
2018-02-10T15:55:14.137Z,93.50
2018-02-10T15:57:42.257Z,89.04
2018-02-10T16:00:10.389Z,88.22
2018-02-10T16:02:38.574Z,91.00
2018-02-10T16:05:06.918Z,91.66
2018-02-10T16:07:35.054Z,86.13
2018-02-10T16:10:03.173Z,89.73
2018-02-10T16:12:31.305Z,90.94
2018-02-10T16:14:59.425Z,91.83
2018-02-10T16:17:27.532Z,92.14
2018-02-10T16:19:55.647Z,91.83
2018-02-10T16:22:24.593Z,91.91
2018-02-10T16:24:52.721Z,92.11
2018-02-10T16:27:20.854Z,92.04
2018-02-10T16:29:48.959Z,92.32
2018-02-10T16:32:17.180Z,92.20
2018-02-10T16:34:45.341Z,92.19
2018-02-10T16:37:13.469Z,92.24
2018-02-10T16:39:41.589Z,91.83
2018-02-10T16:42:09.699Z,91.61
2018-02-10T16:44:37.875Z,91.90
2018-02-10T16:47:05.992Z,91.77
2018-02-10T16:49:34.118Z,92.17
2018-02-10T16:52:02.235Z,91.88
2018-02-10T16:54:30.349Z,91.31
2018-02-10T16:56:58.466Z,91.03
2018-02-10T16:59:26.593Z,91.28
2018-02-10T17:01:54.714Z,92.18
2018-02-10T17:04:22.840Z,92.39
2018-02-10T17:06:50.946Z,92.62
2018-02-10T17:09:19.080Z,92.47
2018-02-10T17:11:47.238Z,91.90
2018-02-10T17:14:15.416Z,92.18
2018-02-10T17:16:43.491Z,92.17
2018-02-10T17:19:11.624Z,92.08
2018-02-10T17:21:39.761Z,91.92
2018-02-10T17:24:07.875Z,91.46
2018-02-10T17:26:36.062Z,91.46
2018-02-10T17:29:04.163Z,91.47
2018-02-10T17:31:32.292Z,90.92
2018-02-10T17:34:00.419Z,90.28
2018-02-10T17:36:28.544Z,90.77
2018-02-10T17:38:56.656Z,91.01
2018-02-10T17:41:24.787Z,90.59
2018-02-10T17:43:52.905Z,90.33
2018-02-10T17:46:21.025Z,89.92
2018-02-10T17:48:49.183Z,89.47
2018-02-10T17:51:17.298Z,89.45
2018-02-10T17:53:45.432Z,89.47
2018-02-10T17:56:13.538Z,89.45
2018-02-10T17:58:41.692Z,89.14
2018-02-10T18:01:10.016Z,89.05
2018-02-10T18:03:38.182Z,88.97
2018-02-10T18:06:06.300Z,88.70
2018-02-10T18:08:34.436Z,89.07
2018-02-10T18:11:02.559Z,88.39
2018-02-10T18:13:30.667Z,87.83
2018-02-10T18:15:58.798Z,88.05
2018-02-10T18:18:26.906Z,87.91
2018-02-10T18:20:55.037Z,87.79
2018-02-10T18:23:23.141Z,87.94
2018-02-10T18:25:51.282Z,87.62
2018-02-10T18:28:19.397Z,86.54
2018-02-10T18:30:47.516Z,87.45
2018-02-10T18:33:15.682Z,87.93
2018-02-10T18:35:43.831Z,88.02
2018-02-10T18:38:11.963Z,87.95
2018-02-10T18:40:40.068Z,88.13
2018-02-10T18:43:08.187Z,88.12
2018-02-10T18:45:36.320Z,88.36
2018-02-10T18:48:04.464Z,88.05
2018-02-10T18:50:32.555Z,88.00
2018-02-10T18:53:00.667Z,88.59
2018-02-10T18:55:28.790Z,88.31
2018-02-10T18:57:56.908Z,88.03
2018-02-10T19:00:25.658Z,87.75
2018-02-10T19:02:53.754Z,87.54
2018-02-10T19:05:21.866Z,87.02
2018-02-10T19:07:49.976Z,86.87
2018-02-10T19:10:18.116Z,86.68
2018-02-10T19:12:46.200Z,86.18
2018-02-10T19:15:14.405Z,86.14
2018-02-10T19:17:42.517Z,85.66
2018-02-10T19:20:11.533Z,85.49
2018-02-10T19:22:40.056Z,85.40
2018-02-10T19:25:08.174Z,85.29
2018-02-10T19:27:36.285Z,85.14
2018-02-10T19:30:04.397Z,84.91
2018-02-10T19:32:32.524Z,84.41
2018-02-10T19:35:00.647Z,89.11
2018-02-10T19:37:28.772Z,84.72
2018-02-10T19:39:56.888Z,85.63
2018-02-10T19:42:25.006Z,84.72
2018-02-10T19:44:53.126Z,84.88
2018-02-10T19:47:21.242Z,84.66
2018-02-10T19:49:49.351Z,84.47
2018-02-10T19:52:17.474Z,84.26
2018-02-10T19:54:45.591Z,84.05
2018-02-10T19:57:13.699Z,84.35
2018-02-10T19:59:41.816Z,83.69
2018-02-10T20:02:09.939Z,83.72
2018-02-10T20:04:38.468Z,83.06
2018-02-10T20:07:06.598Z,83.29
2018-02-10T20:09:34.694Z,82.73
2018-02-10T20:12:02.811Z,82.66
2018-02-10T20:14:30.928Z,82.27
2018-02-10T20:16:59.056Z,82.32
2018-02-10T20:19:27.221Z,81.50
2018-02-10T20:21:55.335Z,81.50
2018-02-10T20:24:23.436Z,81.84
2018-02-10T20:26:51.544Z,82.14
2018-02-10T20:29:19.731Z,81.17
2018-02-10T20:31:47.846Z,81.85
2018-02-10T20:34:15.976Z,82.16
2018-02-10T20:36:44.086Z,81.57
2018-02-10T20:39:12.218Z,81.32
2018-02-10T20:41:40.396Z,81.57
2018-02-10T20:44:08.503Z,81.39
2018-02-10T20:46:36.615Z,81.66
2018-02-10T20:49:04.729Z,81.70
2018-02-10T20:51:32.846Z,81.84
2018-02-10T20:54:00.960Z,81.83
2018-02-10T20:56:29.069Z,81.65
2018-02-10T20:58:57.171Z,82.07
2018-02-10T21:01:25.305Z,82.46
2018-02-10T21:03:53.433Z,82.49
2018-02-10T21:06:21.527Z,82.34
2018-02-10T21:08:49.649Z,82.63
2018-02-10T21:11:17.777Z,82.52
2018-02-10T21:13:48.812Z,82.12
2018-02-10T21:16:17.062Z,82.04
2018-02-10T21:18:45.185Z,82.00
2018-02-10T21:21:13.353Z,81.25
2018-02-10T21:23:41.486Z,80.91
2018-02-10T21:26:09.594Z,80.42
2018-02-10T21:28:37.701Z,80.23
2018-02-10T21:31:05.813Z,80.13
2018-02-10T21:33:33.914Z,79.30
2018-02-10T21:36:02.042Z,79.23
2018-02-10T21:38:30.152Z,79.39
2018-02-10T21:40:58.274Z,79.67
2018-02-10T21:43:26.395Z,79.75
2018-02-10T21:45:54.509Z,79.51
2018-02-10T21:48:22.615Z,79.35
2018-02-10T21:50:50.770Z,79.46
2018-02-10T21:53:18.877Z,79.38
2018-02-10T21:55:47.032Z,79.42
2018-02-10T21:58:15.139Z,79.34
2018-02-10T22:00:43.252Z,79.07
2018-02-10T22:03:11.405Z,79.22
2018-02-10T22:05:39.485Z,78.84
2018-02-10T22:08:07.590Z,78.33
2018-02-10T22:10:35.957Z,78.44
2018-02-10T22:13:04.055Z,78.60
2018-02-10T22:15:32.167Z,77.56
2018-02-10T22:18:00.292Z,77.77
2018-02-10T22:20:28.420Z,77.12
2018-02-10T22:22:56.571Z,76.97
2018-02-10T22:25:24.650Z,76.15
2018-02-10T22:27:52.764Z,76.29
2018-02-10T22:30:20.880Z,76.16
2018-02-10T22:32:49.307Z,75.76
2018-02-10T22:35:17.429Z,75.30
2018-02-10T22:37:45.539Z,74.86
2018-02-10T22:40:13.681Z,74.75
2018-02-10T22:42:41.819Z,74.29
2018-02-10T22:45:13.565Z,74.39
2018-02-10T22:47:41.700Z,73.55
2018-02-10T22:50:09.789Z,73.17
2018-02-10T22:52:37.921Z,73.04
2018-02-10T22:55:06.052Z,73.17
2018-02-10T22:57:34.141Z,72.56
2018-02-10T23:00:02.236Z,72.32
2018-02-10T23:02:30.336Z,72.06
2018-02-10T23:04:58.442Z,72.10
2018-02-10T23:07:26.544Z,71.97
2018-02-10T23:09:54.678Z,71.94
2018-02-10T23:12:22.771Z,72.71
2018-02-10T23:14:50.891Z,72.51
2018-02-10T23:17:18.999Z,72.54
2018-02-10T23:19:47.117Z,72.53
2018-02-10T23:22:15.314Z,72.24
2018-02-10T23:24:43.451Z,72.55
2018-02-10T23:27:11.574Z,71.96
2018-02-10T23:29:39.739Z,71.99
2018-02-10T23:32:07.903Z,71.81
2018-02-10T23:34:36.045Z,71.32
2018-02-10T23:37:04.134Z,72.11
2018-02-10T23:39:32.242Z,71.40
2018-02-10T23:42:00.373Z,71.75
2018-02-10T23:44:28.519Z,71.76
2018-02-10T23:46:56.607Z,71.83
2018-02-10T23:49:24.722Z,71.83
2018-02-10T23:51:52.840Z,71.95
2018-02-10T23:54:20.968Z,71.55
2018-02-10T23:56:49.169Z,71.35
2018-02-10T23:59:17.255Z,71.43
